createdAt,value
2023-05-04T00:02:25.454Z,4.94
2023-05-04T00:04:56.526Z,4.95
2023-05-04T00:07:27.205Z,4.94
2023-05-04T00:09:57.509Z,4.95
2023-05-04T00:12:28.519Z,4.90
2023-05-04T00:14:59.005Z,4.86
2023-05-04T00:17:29.341Z,4.82
2023-05-04T00:19:59.703Z,4.78
2023-05-04T00:22:30.195Z,4.71
2023-05-04T00:25:00.625Z,4.63
2023-05-04T00:27:31.323Z,4.57
2023-05-04T00:30:01.834Z,4.53
2023-05-04T00:32:32.401Z,4.52
2023-05-04T00:35:03.380Z,4.50
2023-05-04T00:37:33.763Z,4.50
2023-05-04T00:40:04.377Z,4.50
2023-05-04T00:42:34.926Z,4.47
2023-05-04T00:45:05.676Z,4.38
2023-05-04T00:47:37.258Z,4.29
2023-05-04T00:50:09.982Z,4.24
2023-05-04T00:52:42.036Z,4.19
2023-05-04T00:55:14.445Z,4.17
2023-05-04T00:57:45.042Z,4.17
2023-05-04T01:00:16.789Z,4.08
2023-05-04T01:02:47.218Z,4.02
2023-05-04T01:05:19.080Z,3.98
2023-05-04T01:07:59.886Z,3.97
2023-05-04T01:10:40.962Z,3.97
2023-05-04T01:13:15.015Z,3.98
2023-05-04T01:15:45.611Z,3.92
2023-05-04T01:18:17.142Z,3.86
2023-05-04T01:20:47.920Z,3.85
2023-05-04T01:23:22.507Z,3.85
2023-05-04T01:26:01.898Z,3.84
2023-05-04T01:28:38.756Z,3.82
2023-05-04T01:31:12.823Z,3.78
2023-05-04T01:33:44.064Z,3.75
2023-05-04T01:36:14.862Z,3.73
2023-05-04T01:38:48.156Z,3.70
2023-05-04T01:41:18.568Z,3.68
2023-05-04T01:43:48.969Z,3.67
2023-05-04T01:46:22.398Z,3.66
2023-05-04T01:48:52.875Z,3.66
2023-05-04T01:51:26.231Z,3.65
2023-05-04T01:53:58.056Z,3.65
2023-05-04T01:56:28.355Z,3.61
2023-05-04T01:58:58.701Z,3.57
2023-05-04T02:01:29.131Z,3.57
2023-05-04T02:03:59.763Z,3.54
2023-05-04T02:06:30.726Z,3.52
2023-05-04T02:09:01.285Z,3.51
2023-05-04T02:11:31.626Z,3.51
2023-05-04T02:14:02.014Z,3.48
2023-05-04T02:16:32.542Z,3.42
2023-05-04T02:19:03.143Z,3.37
2023-05-04T02:21:33.504Z,3.32
2023-05-04T02:24:06.235Z,3.31
2023-05-04T02:26:37.142Z,3.30
2023-05-04T02:29:07.656Z,3.28
2023-05-04T02:31:38.022Z,3.26
2023-05-04T02:34:08.405Z,3.24
2023-05-04T02:36:44.589Z,3.23
2023-05-04T02:39:14.941Z,3.21
2023-05-04T02:41:45.243Z,3.18
2023-05-04T02:44:15.700Z,3.14
2023-05-04T02:46:46.050Z,3.10
2023-05-04T02:49:16.403Z,3.08
2023-05-04T02:51:48.533Z,3.05
2023-05-04T02:54:18.968Z,3.03
2023-05-04T02:56:49.286Z,3.00
2023-05-04T02:59:19.643Z,2.99
2023-05-04T03:01:49.974Z,2.98
2023-05-04T03:04:20.494Z,2.98
2023-05-04T03:06:50.867Z,3.00
2023-05-04T03:09:21.150Z,2.97
2023-05-04T03:11:51.572Z,2.95
2023-05-04T03:14:22.322Z,2.94
2023-05-04T03:16:52.821Z,2.94
2023-05-04T03:19:23.655Z,2.92
2023-05-04T03:21:54.999Z,2.92
2023-05-04T03:24:26.152Z,2.90
2023-05-04T03:26:56.475Z,2.86
2023-05-04T03:29:27.676Z,2.84
2023-05-04T03:31:58.937Z,2.81
2023-05-04T03:34:29.552Z,2.81
2023-05-04T03:37:03.731Z,2.82
2023-05-04T03:39:34.110Z,2.82
2023-05-04T03:42:04.665Z,2.80
2023-05-04T03:44:35.064Z,2.79
2023-05-04T03:47:05.457Z,2.78
2023-05-04T03:49:36.368Z,2.81
2023-05-04T03:52:06.803Z,2.82
2023-05-04T03:54:38.108Z,2.83
2023-05-04T03:57:08.478Z,2.88
2023-05-04T03:59:39.186Z,2.89
2023-05-04T04:02:10.047Z,2.87
2023-05-04T04:04:40.413Z,2.91
2023-05-04T04:07:11.020Z,2.96
2023-05-04T04:09:41.350Z,3.02
2023-05-04T04:12:11.602Z,3.06
2023-05-04T04:14:41.937Z,3.14
2023-05-04T04:17:12.239Z,3.23
2023-05-04T04:19:42.544Z,3.34
2023-05-04T04:22:12.928Z,3.51
2023-05-04T04:24:43.224Z,3.80
2023-05-04T04:27:13.597Z,4.08
2023-05-04T04:29:43.894Z,4.13
2023-05-04T04:32:14.646Z,4.18
2023-05-04T04:34:44.926Z,4.25
2023-05-04T04:37:15.852Z,4.33
2023-05-04T04:39:46.160Z,4.43
2023-05-04T04:42:16.446Z,4.53
2023-05-04T04:44:46.743Z,4.63
2023-05-04T04:47:17.935Z,4.72
2023-05-04T04:49:50.128Z,4.84
2023-05-04T04:52:20.516Z,4.96
2023-05-04T04:54:51.238Z,5.07
2023-05-04T04:57:21.630Z,5.19
2023-05-04T04:59:53.243Z,5.33
2023-05-04T05:02:23.727Z,5.49
2023-05-04T05:04:54.591Z,5.63
2023-05-04T05:07:25.085Z,5.77
2023-05-04T05:09:57.438Z,5.91
2023-05-04T05:12:27.792Z,6.05
2023-05-04T05:14:58.265Z,6.17
2023-05-04T05:17:28.798Z,6.29
2023-05-04T05:19:59.170Z,6.43
2023-05-04T05:22:29.563Z,6.55
2023-05-04T05:25:00.266Z,6.67
2023-05-04T05:27:31.124Z,6.80
2023-05-04T05:30:01.403Z,6.93
2023-05-04T05:32:32.751Z,7.06
2023-05-04T05:35:03.789Z,7.22
2023-05-04T05:37:34.747Z,7.37
2023-05-04T05:40:07.872Z,7.50
2023-05-04T05:42:38.432Z,7.65
2023-05-04T05:45:12.240Z,7.80
2023-05-04T05:47:43.091Z,7.97
2023-05-04T05:50:16.722Z,8.16
2023-05-04T05:52:47.331Z,8.47
2023-05-04T05:55:18.353Z,8.63
2023-05-04T05:57:51.828Z,8.78
2023-05-04T06:00:24.309Z,8.89
2023-05-04T06:02:55.928Z,9.03
2023-05-04T06:05:26.856Z,9.11
2023-05-04T06:07:57.377Z,9.22
2023-05-04T06:10:27.887Z,9.34
2023-05-04T06:12:58.390Z,9.44
2023-05-04T06:15:28.869Z,9.53
2023-05-04T06:17:59.352Z,9.62
2023-05-04T06:20:30.074Z,9.70
2023-05-04T06:23:00.903Z,9.81
2023-05-04T06:25:31.654Z,9.96
2023-05-04T06:28:02.514Z,10.13
2023-05-04T06:30:32.924Z,10.25
2023-05-04T06:33:04.326Z,10.36
2023-05-04T06:35:34.862Z,10.43
2023-05-04T06:38:05.282Z,10.50
2023-05-04T06:40:35.645Z,10.60
2023-05-04T06:43:06.775Z,10.70
2023-05-04T06:45:38.102Z,10.80
2023-05-04T06:48:09.222Z,10.91
2023-05-04T06:50:40.124Z,10.99
2023-05-04T06:53:12.005Z,11.09
2023-05-04T06:55:42.480Z,11.17
2023-05-04T06:58:12.984Z,11.25
2023-05-04T07:00:43.732Z,11.30
2023-05-04T07:03:14.149Z,11.33
2023-05-04T07:05:45.608Z,11.41
2023-05-04T07:08:16.000Z,11.52
2023-05-04T07:10:46.339Z,11.59
2023-05-04T07:13:16.814Z,11.70
2023-05-04T07:15:47.652Z,11.79
2023-05-04T07:18:17.994Z,11.86
2023-05-04T07:20:48.374Z,11.93
2023-05-04T07:23:18.780Z,12.03
2023-05-04T07:25:49.205Z,12.14
2023-05-04T07:28:19.531Z,12.21
2023-05-04T07:30:50.258Z,12.31
2023-05-04T07:33:21.122Z,12.38
2023-05-04T07:35:51.519Z,12.45
2023-05-04T07:38:21.859Z,12.53
2023-05-04T07:40:52.303Z,12.58
2023-05-04T07:43:22.719Z,12.64
2023-05-04T07:45:55.159Z,12.69
2023-05-04T07:48:26.775Z,12.70
2023-05-04T07:50:57.774Z,12.73
2023-05-04T07:53:28.127Z,12.80
2023-05-04T07:56:00.892Z,12.86
2023-05-04T07:58:31.310Z,12.91
2023-05-04T08:01:01.636Z,12.95
2023-05-04T08:03:32.441Z,12.99
2023-05-04T08:06:03.224Z,13.02
2023-05-04T08:08:33.547Z,13.06
2023-05-04T08:11:18.676Z,13.14
2023-05-04T08:13:51.031Z,13.22
2023-05-04T08:16:21.553Z,13.28
2023-05-04T08:18:51.972Z,13.33
2023-05-04T08:21:22.359Z,13.38
2023-05-04T08:23:53.077Z,13.44
2023-05-04T08:26:23.522Z,13.47
2023-05-04T08:28:53.872Z,13.51
2023-05-04T08:31:24.295Z,13.57
2023-05-04T08:33:54.633Z,13.60
2023-05-04T08:36:24.971Z,13.61
2023-05-04T08:38:55.810Z,13.60
2023-05-04T08:41:26.142Z,13.59
2023-05-04T08:43:57.011Z,13.63
2023-05-04T08:46:30.800Z,13.67
2023-05-04T08:49:01.662Z,13.70
2023-05-04T08:51:36.318Z,13.69
2023-05-04T08:54:10.541Z,13.73
2023-05-04T08:56:43.141Z,13.75
2023-05-04T08:59:20.043Z,13.77
2023-05-04T09:01:51.773Z,13.82
2023-05-04T09:04:23.363Z,13.85
2023-05-04T09:06:54.989Z,13.89
2023-05-04T09:09:27.562Z,13.92
2023-05-04T09:11:59.033Z,13.99
2023-05-04T09:14:35.692Z,14.05
2023-05-04T09:17:17.688Z,14.10
2023-05-04T09:19:58.045Z,14.14
2023-05-04T09:22:29.038Z,14.16
2023-05-04T09:25:11.402Z,14.16
2023-05-04T09:27:42.818Z,14.20
2023-05-04T09:30:15.138Z,14.22
2023-05-04T09:32:49.628Z,14.18
2023-05-04T09:35:33.157Z,14.16
2023-05-04T09:38:05.149Z,14.22
2023-05-04T09:40:36.352Z,14.28
2023-05-04T09:43:06.843Z,14.34
2023-05-04T09:45:44.612Z,14.37
2023-05-04T09:48:25.614Z,14.38
2023-05-04T09:50:57.446Z,14.44
2023-05-04T09:53:29.318Z,14.49
2023-05-04T09:56:08.092Z,14.51
2023-05-04T09:58:40.233Z,14.55
2023-05-04T10:01:10.615Z,14.56
2023-05-04T10:03:42.372Z,14.59
2023-05-04T10:06:13.884Z,14.63
2023-05-04T10:08:44.537Z,14.69
2023-05-04T10:11:16.070Z,14.71
2023-05-04T10:13:46.748Z,14.73
2023-05-04T10:16:28.748Z,14.75
2023-05-04T10:19:25.616Z,14.78
2023-05-04T10:22:11.981Z,14.81
2023-05-04T10:25:04.870Z,14.82
2023-05-04T10:27:48.492Z,14.84
2023-05-04T10:30:20.360Z,14.89
2023-05-04T10:32:57.409Z,14.93
2023-05-04T10:35:28.694Z,14.99
2023-05-04T10:37:59.304Z,15.04
2023-05-04T10:40:40.828Z,15.10
2023-05-04T10:43:13.256Z,15.18
2023-05-04T10:45:44.138Z,15.22
2023-05-04T10:48:14.561Z,15.29
2023-05-04T10:50:46.637Z,15.41
2023-05-04T10:53:18.823Z,15.52
2023-05-04T10:55:49.891Z,15.60
2023-05-04T10:58:30.506Z,15.63
2023-05-04T11:01:01.048Z,15.70
2023-05-04T11:03:41.861Z,15.84
2023-05-04T11:06:23.378Z,15.97
2023-05-04T11:09:05.637Z,16.07
2023-05-04T11:11:40.333Z,16.12
2023-05-04T11:14:11.941Z,16.21
2023-05-04T11:16:42.705Z,16.30
2023-05-04T11:19:13.579Z,16.36
2023-05-04T11:21:44.350Z,16.39
2023-05-04T11:24:14.771Z,16.44
2023-05-04T11:26:51.586Z,16.51
2023-05-04T11:29:20.658Z,16.58
2023-05-04T11:32:00.080Z,16.65
2023-05-04T11:34:30.610Z,16.72
2023-05-04T11:37:01.010Z,16.76
2023-05-04T11:39:34.503Z,16.81
2023-05-04T11:42:09.902Z,16.82
2023-05-04T11:44:41.726Z,16.90
2023-05-04T11:47:12.924Z,17.00
2023-05-04T11:49:43.932Z,17.07
2023-05-04T11:52:14.536Z,17.13
2023-05-04T11:54:55.945Z,17.24
2023-05-04T11:57:26.401Z,17.36
2023-05-04T11:59:56.823Z,17.48
2023-05-04T12:02:27.202Z,17.58
2023-05-04T12:04:57.602Z,17.74
2023-05-04T12:07:28.595Z,17.98
2023-05-04T12:09:58.927Z,18.37
2023-05-04T12:12:37.566Z,19.10
2023-05-04T12:15:10.941Z,20.60
2023-05-04T12:17:45.084Z,22.50
2023-05-04T12:20:25.555Z,24.24
2023-05-04T12:22:57.391Z,26.16
2023-05-04T12:25:27.759Z,27.71
2023-05-04T12:27:58.478Z,29.06
2023-05-04T12:30:28.840Z,30.32
2023-05-04T12:32:59.256Z,31.45
2023-05-04T12:35:29.813Z,32.81
2023-05-04T12:38:00.272Z,33.98
2023-05-04T12:40:30.580Z,34.92
2023-05-04T12:43:00.865Z,35.63
2023-05-04T12:45:31.182Z,36.29
2023-05-04T12:48:01.942Z,37.52
2023-05-04T12:50:32.378Z,38.56
2023-05-04T12:53:04.229Z,39.34
2023-05-04T12:55:34.629Z,40.03
2023-05-04T12:58:05.229Z,40.86
2023-05-04T13:00:37.867Z,41.75
2023-05-04T13:03:08.743Z,42.51
2023-05-04T13:05:39.445Z,42.97
2023-05-04T13:08:09.800Z,43.51
2023-05-04T13:10:40.203Z,44.09
2023-05-04T13:13:11.510Z,44.59
2023-05-04T13:15:42.184Z,45.09
2023-05-04T13:18:12.764Z,45.59
2023-05-04T13:20:43.813Z,46.04
2023-05-04T13:23:15.250Z,46.43
2023-05-04T13:25:45.617Z,46.87
2023-05-04T13:28:15.969Z,47.40
2023-05-04T13:30:46.585Z,47.68
2023-05-04T13:33:28.977Z,47.47
2023-05-04T13:36:02.216Z,47.33
2023-05-04T13:38:32.514Z,47.16
2023-05-04T13:41:02.851Z,46.77
2023-05-04T13:43:33.251Z,47.42
2023-05-04T13:46:07.097Z,47.89
2023-05-04T13:48:37.975Z,47.40
2023-05-04T13:51:08.605Z,47.10
2023-05-04T13:53:38.988Z,46.67
2023-05-04T13:56:09.607Z,45.68
2023-05-04T13:58:39.978Z,43.58
2023-05-04T14:01:10.379Z,41.37
2023-05-04T14:03:40.902Z,39.85
2023-05-04T14:06:11.408Z,38.67
2023-05-04T14:08:41.916Z,37.58
2023-05-04T14:11:12.199Z,36.84
2023-05-04T14:13:42.530Z,36.28
2023-05-04T14:16:12.951Z,35.83
2023-05-04T14:18:43.416Z,35.32
2023-05-04T14:21:14.032Z,34.78
2023-05-04T14:23:45.041Z,34.16
2023-05-04T14:26:15.459Z,33.47
2023-05-04T14:28:46.228Z,32.83
2023-05-04T14:31:16.536Z,32.30
2023-05-04T14:33:46.873Z,31.85
2023-05-04T14:36:17.267Z,31.52
2023-05-04T14:38:48.173Z,31.52
2023-05-04T14:41:18.685Z,32.15
2023-05-04T14:43:49.895Z,33.19
2023-05-04T14:46:20.286Z,34.33
2023-05-04T14:48:50.764Z,34.98
2023-05-04T14:51:27.668Z,35.47
2023-05-04T14:53:59.725Z,35.40
2023-05-04T14:56:31.155Z,35.74
2023-05-04T14:59:01.811Z,35.95
2023-05-04T15:01:32.205Z,36.06
2023-05-04T15:04:02.894Z,36.20
2023-05-04T15:06:34.031Z,36.10
2023-05-04T15:09:05.551Z,35.91
2023-05-04T15:11:35.862Z,35.69
2023-05-04T15:14:06.199Z,35.36
2023-05-04T15:16:36.520Z,34.90
2023-05-04T15:19:07.454Z,34.37
2023-05-04T15:21:37.730Z,33.97
2023-05-04T15:24:09.105Z,33.45
2023-05-04T15:26:40.104Z,32.80
2023-05-04T15:29:10.506Z,31.89
2023-05-04T15:31:41.167Z,30.94
2023-05-04T15:34:11.678Z,30.03
2023-05-04T15:36:42.004Z,29.27
2023-05-04T15:39:12.288Z,28.68
2023-05-04T15:41:43.310Z,28.11
2023-05-04T15:44:13.616Z,27.38
2023-05-04T15:46:44.776Z,26.75
2023-05-04T15:49:15.461Z,26.22
2023-05-04T15:51:45.984Z,25.84
2023-05-04T15:54:17.815Z,25.46
2023-05-04T15:56:48.161Z,25.22
2023-05-04T15:59:18.421Z,25.01
2023-05-04T16:01:48.704Z,24.77
2023-05-04T16:04:20.316Z,24.54
2023-05-04T16:06:50.714Z,24.29
2023-05-04T16:09:21.050Z,24.15
2023-05-04T16:11:51.335Z,24.07
2023-05-04T16:14:22.857Z,23.94
2023-05-04T16:16:53.186Z,23.76
2023-05-04T16:19:23.588Z,23.58
2023-05-04T16:21:53.923Z,23.33
2023-05-04T16:24:24.452Z,23.14
2023-05-04T16:26:54.777Z,22.94
2023-05-04T16:29:25.061Z,22.82
2023-05-04T16:31:56.331Z,22.65
2023-05-04T16:34:26.784Z,22.46
2023-05-04T16:36:57.108Z,22.31
2023-05-04T16:39:31.578Z,22.17
2023-05-04T16:42:02.321Z,21.87
2023-05-04T16:44:33.209Z,21.72
2023-05-04T16:47:03.572Z,21.58
2023-05-04T16:49:34.031Z,21.41
2023-05-04T16:52:05.077Z,21.23
2023-05-04T16:54:35.686Z,21.04
2023-05-04T16:57:06.143Z,20.93
2023-05-04T16:59:36.661Z,20.81
2023-05-04T17:04:38.699Z,20.51
2023-05-04T17:07:10.863Z,20.32
2023-05-04T17:09:42.019Z,20.13
2023-05-04T17:12:12.341Z,19.99
2023-05-04T17:14:43.219Z,19.89
2023-05-04T17:17:13.957Z,19.76
2023-05-04T17:19:44.340Z,19.64
2023-05-04T17:22:14.680Z,19.52
2023-05-04T17:24:45.706Z,19.40
2023-05-04T17:27:16.209Z,19.28
2023-05-04T17:32:48.711Z,19.06
2023-05-04T17:35:25.183Z,18.95
2023-05-04T17:37:58.500Z,18.83
2023-05-04T17:40:29.609Z,18.68
2023-05-04T17:43:00.382Z,18.57
2023-05-04T17:45:30.789Z,18.44
2023-05-04T17:48:01.232Z,18.30
2023-05-04T17:50:31.628Z,18.15
2023-05-04T17:53:03.983Z,18.04
2023-05-04T17:55:34.479Z,17.91
2023-05-04T17:58:04.799Z,17.79
2023-05-04T18:00:35.451Z,17.67
2023-05-04T18:03:06.098Z,17.55
2023-05-04T18:05:36.475Z,17.46
2023-05-04T18:08:07.311Z,17.35
2023-05-04T18:10:38.401Z,17.26
2023-05-04T18:13:08.864Z,17.15
2023-05-04T18:15:39.343Z,17.05
2023-05-04T18:18:11.057Z,16.94
2023-05-04T18:20:41.404Z,16.85
2023-05-04T18:23:11.771Z,16.77
2023-05-04T18:25:42.162Z,16.68
2023-05-04T18:28:12.543Z,16.61
2023-05-04T18:30:43.298Z,16.50
2023-05-04T18:33:13.929Z,16.42
2023-05-04T18:35:44.209Z,16.34
2023-05-04T18:38:14.734Z,16.27
2023-05-04T18:40:45.157Z,16.20
2023-05-04T18:43:16.967Z,16.11
2023-05-04T18:45:47.327Z,16.06
2023-05-04T18:48:19.155Z,15.99
2023-05-04T18:50:57.297Z,15.94
2023-05-04T18:53:27.909Z,15.88
2023-05-04T18:56:05.803Z,15.79
2023-05-04T18:58:36.673Z,15.72
2023-05-04T19:01:07.412Z,15.65
2023-05-04T19:03:38.218Z,15.58
2023-05-04T19:06:08.999Z,15.52
2023-05-04T19:08:39.524Z,15.43
2023-05-04T19:11:09.889Z,15.32
2023-05-04T19:13:40.246Z,15.24
2023-05-04T19:16:13.951Z,15.14
2023-05-04T19:18:45.652Z,15.02
2023-05-04T19:21:16.764Z,14.93
2023-05-04T19:23:47.132Z,14.88
2023-05-04T19:26:17.730Z,14.80
2023-05-04T19:28:48.116Z,14.75
2023-05-04T19:31:18.622Z,14.71
2023-05-04T19:33:49.678Z,14.69
2023-05-04T19:36:20.111Z,14.68
2023-05-04T19:38:50.454Z,14.63
2023-05-04T19:41:21.264Z,14.54
2023-05-04T19:43:51.714Z,14.45
2023-05-04T19:46:22.232Z,14.38
2023-05-04T19:48:53.481Z,14.31
2023-05-04T19:51:23.778Z,14.25
2023-05-04T19:53:54.094Z,14.20
2023-05-04T19:56:24.436Z,14.16
2023-05-04T19:58:54.820Z,14.13
2023-05-04T20:01:25.305Z,14.10
2023-05-04T20:03:55.696Z,14.05
2023-05-04T20:06:26.326Z,14.01
2023-05-04T20:08:56.588Z,13.96
2023-05-04T20:11:26.886Z,13.90
2023-05-04T20:13:57.322Z,13.85
2023-05-04T20:16:27.755Z,13.80
2023-05-04T20:18:58.098Z,13.74
2023-05-04T20:21:29.013Z,13.67
2023-05-04T20:23:59.350Z,13.61
2023-05-04T20:26:29.670Z,13.55
2023-05-04T20:28:59.988Z,13.49
2023-05-04T20:31:30.327Z,13.40
2023-05-04T20:34:00.977Z,13.31
2023-05-04T20:36:31.655Z,13.23
2023-05-04T20:39:06.456Z,13.17
2023-05-04T20:41:37.028Z,13.12
2023-05-04T20:44:07.520Z,13.09
2023-05-04T20:46:38.065Z,13.04
2023-05-04T20:49:09.057Z,12.96
2023-05-04T20:51:39.521Z,12.89
2023-05-04T20:54:09.885Z,12.84
2023-05-04T20:56:40.286Z,12.79
2023-05-04T20:59:10.613Z,12.74
2023-05-04T21:01:41.088Z,12.68
2023-05-04T21:04:11.664Z,12.63
2023-05-04T21:06:42.135Z,12.58
2023-05-04T21:09:12.823Z,12.52
2023-05-04T21:11:43.279Z,12.50
2023-05-04T21:14:13.637Z,12.49
2023-05-04T21:16:43.849Z,12.46
2023-05-04T21:19:14.081Z,12.41
2023-05-04T21:21:44.384Z,12.37
2023-05-04T21:24:16.146Z,12.32
2023-05-04T21:26:48.389Z,12.25
2023-05-04T21:29:18.737Z,12.19
2023-05-04T21:31:49.066Z,12.09
2023-05-04T21:34:19.477Z,12.01
2023-05-04T21:36:49.816Z,11.93
2023-05-04T21:39:21.666Z,11.85
2023-05-04T21:41:51.961Z,11.73
2023-05-04T21:44:22.276Z,11.60
2023-05-04T21:46:52.699Z,11.47
2023-05-04T21:49:23.271Z,11.41
2023-05-04T21:51:53.545Z,11.37
2023-05-04T21:54:25.795Z,11.33
2023-05-04T21:56:56.514Z,11.32
2023-05-04T21:59:26.782Z,11.32
2023-05-04T22:01:57.483Z,11.30
2023-05-04T22:04:28.121Z,11.29
2023-05-04T22:06:58.438Z,11.27
2023-05-04T22:09:30.328Z,11.26
2023-05-04T22:12:00.983Z,11.22
2023-05-04T22:14:31.245Z,11.20
2023-05-04T22:17:01.851Z,11.18
2023-05-04T22:19:32.180Z,11.17
2023-05-04T22:22:02.472Z,11.16
2023-05-04T22:24:32.810Z,11.09
2023-05-04T22:27:03.471Z,10.93
2023-05-04T22:29:36.255Z,10.75
2023-05-04T22:32:07.751Z,10.59
2023-05-04T22:34:38.104Z,10.53
2023-05-04T22:37:08.529Z,10.49
2023-05-04T22:39:38.932Z,10.46
2023-05-04T22:42:09.279Z,10.45
2023-05-04T22:44:39.569Z,10.44
2023-05-04T22:47:09.932Z,10.42
2023-05-04T22:49:40.219Z,10.41
2023-05-04T22:52:10.458Z,10.37
2023-05-04T22:54:40.837Z,10.35
2023-05-04T22:57:11.102Z,10.32
2023-05-04T22:59:42.115Z,10.30
2023-05-04T23:02:14.504Z,10.29
2023-05-04T23:04:45.494Z,10.29
2023-05-04T23:07:15.798Z,10.27
2023-05-04T23:09:46.493Z,10.24
2023-05-04T23:12:17.199Z,10.16
2023-05-04T23:14:50.467Z,9.98
2023-05-04T23:17:21.419Z,9.78
2023-05-04T23:19:52.025Z,9.64
2023-05-04T23:22:22.316Z,9.54
2023-05-04T23:24:52.634Z,9.44
2023-05-04T23:27:22.917Z,9.37
2023-05-04T23:29:53.320Z,9.33
2023-05-04T23:32:23.667Z,9.32
2023-05-04T23:34:54.631Z,9.33
2023-05-04T23:37:24.936Z,9.35
2023-05-04T23:39:55.225Z,9.36
2023-05-04T23:42:26.278Z,9.36
2023-05-04T23:44:57.763Z,9.37
2023-05-04T23:47:28.224Z,9.36
2023-05-04T23:49:58.558Z,9.31
2023-05-04T23:52:29.560Z,9.25
2023-05-04T23:54:59.869Z,9.15
2023-05-04T23:57:30.270Z,9.03
